Time;durP1;ratioP1;P1;durP2;ratioP2;P2;SDS_P1;SDS_P2;PMS_P1;PMS_P2;Temp;Humidity;BMP_temperature;BMP_pressure;BME280_temperature;BME280_humidity;BME280_pressure;Samples;Min_cycle;Max_cycle;Signal;HPM_P1;HPM_P2
2020/12/01 00:01:21;;;;;;;;;;;;;;;28.95;21.94;101459.59;5116938;28;845;-42
2020/12/01 00:03:47;;;;;;;;;;;;;;;28.89;21.70;101465.75;5117118;28;945;-22
2020/12/01 00:06:12;;;;;;;;;;;;;;;29.03;21.75;101453.34;5117187;28;797;-22
2020/12/01 00:08:37;;;;;;;;;;;;;;;29.13;21.65;101453.94;5117468;28;755;-22
2020/12/01 00:11:04;;;;;;;;;;;;;;;29.03;21.57;101447.94;5117300;28;767;-21
2020/12/01 00:13:29;;;;;;;;;;;;;;;28.83;21.91;101460.00;5117023;28;816;-43
2020/12/01 00:15:54;;;;;;;;;;;;;;;28.98;21.69;101456.56;5117054;28;799;-22
2020/12/01 00:18:19;;;;;;;;;;;;;;;28.67;22.36;101463.66;5116944;28;1986;-22
2020/12/01 00:20:45;;;;;;;;;;;;;;;29.02;21.80;101457.06;5117054;28;970;-43
2020/12/01 00:23:10;;;;;;;;;;;;;;;28.96;22.18;101458.59;5117025;28;818;-21
2020/12/01 00:25:35;;;;;;;;;;;;;;;29.15;21.96;101427.50;5117016;28;787;-22
2020/12/01 00:28:00;;;;;;;;;;;;;;;29.14;21.51;101443.94;5116999;28;810;-22
2020/12/01 00:30:26;;;;;;;;;;;;;;;28.81;22.10;101437.69;5116953;28;779;-22
2020/12/01 00:32:51;;;;;;;;;;;;;;;28.94;21.92;101453.38;5116610;28;1058;-21
2020/12/01 00:35:17;;;;;;;;;;;;;;;28.22;23.09;101438.94;5116764;28;798;-21
2020/12/01 00:37:42;;;;;;;;;;;;;;;28.56;23.06;101443.22;5117322;28;799;-21
2020/12/01 00:40:08;;;;;;;;;;;;;;;28.56;23.13;101443.22;5116888;28;1971;-33
2020/12/01 00:42:33;;;;;;;;;;;;;;;28.76;22.83;101448.19;5116706;28;751;-21
2020/12/01 00:44:58;;;;;;;;;;;;;;;28.97;22.23;101449.47;5116820;28;802;-41
2020/12/01 00:47:24;;;;;;;;;;;;;;;28.84;21.97;101439.19;5116546;28;902;-21
2020/12/01 00:49:49;;;;;;;;;;;;;;;28.31;23.22;101437.03;5116763;28;815;-27
2020/12/01 00:52:14;;;;;;;;;;;;;;;28.25;23.51;101438.56;5116868;28;830;-24
2020/12/01 00:54:40;;;;;;;;;;;;;;;28.75;23.30;101437.53;5116673;28;838;-21
2020/12/01 00:57:05;;;;;;;;;;;;;;;28.83;23.18;101438.34;5116729;28;747;-21
2020/12/01 00:59:30;;;;;;;;;;;;;;;28.75;23.47;101438.41;5116359;28;1972;-21
2020/12/01 01:01:55;;;;;;;;;;;;;;;29.38;22.77;101445.63;5118803;28;957;-21
2020/12/01 01:04:21;;;;;;;;;;;;;;;29.17;22.16;101452.56;5120799;28;791;-22
2020/12/01 01:06:47;;;;;;;;;;;;;;;28.87;22.90;101454.22;5120684;28;890;-43
2020/12/01 01:09:12;;;;;;;;;;;;;;;29.33;22.55;101448.88;5120572;28;762;-41
2020/12/01 01:11:37;;;;;;;;;;;;;;;29.54;22.29;101450.09;5120460;28;799;-44
2020/12/01 01:14:03;;;;;;;;;;;;;;;29.19;22.82;101455.09;5120488;28;842;-42
2020/12/01 01:16:28;;;;;;;;;;;;;;;29.36;22.74;101419.75;5120404;28;755;-39
2020/12/01 01:18:53;;;;;;;;;;;;;;;29.15;23.04;101442.91;5119943;27;1890;-24
2020/12/01 01:21:19;;;;;;;;;;;;;;;29.34;22.25;101450.56;5120738;28;728;-42
2020/12/01 01:23:44;;;;;;;;;;;;;;;28.98;22.85;101447.63;5120245;28;759;-46
2020/12/01 01:26:09;;;;;;;;;;;;;;;28.64;23.61;101436.94;5120156;28;798;-26
2020/12/01 01:28:35;;;;;;;;;;;;;;;28.92;23.23;101419.34;5120263;28;806;-23
2020/12/01 01:31:00;;;;;;;;;;;;;;;28.93;22.93;101427.28;5120076;28;820;-22
2020/12/01 01:33:25;;;;;;;;;;;;;;;29.09;22.83;101428.25;5119998;28;965;-23
2020/12/01 01:35:52;;;;;;;;;;;;;;;28.80;23.55;101424.31;5120012;28;902;-22
2020/12/01 01:38:17;;;;;;;;;;;;;;;29.43;22.05;101405.25;5118604;28;1910;-40
2020/12/01 01:40:43;;;;;;;;;;;;;;;29.15;22.11;101413.13;5120096;28;882;-23
2020/12/01 01:43:09;;;;;;;;;;;;;;;28.68;23.26;101405.78;5120065;28;802;-38
2020/12/01 01:45:37;;;;;;;;;;;;;;;29.50;22.21;101383.69;5118186;28;1240;-23
2020/12/01 01:48:03;;;;;;;;;;;;;;;29.27;21.90;101400.84;5119606;28;910;-22
2020/12/01 01:50:29;;;;;;;;;;;;;;;28.89;23.45;101400.75;5118644;28;1541;-40
2020/12/01 01:52:54;;;;;;;;;;;;;;;29.20;22.80;101399.88;5118457;28;755;-23
2020/12/01 01:55:20;;;;;;;;;;;;;;;29.47;22.35;101394.91;5118433;28;967;-25
2020/12/01 01:57:47;;;;;;;;;;;;;;;29.61;22.24;101384.31;5118536;28;870;-34
2020/12/01 02:00:23;;;;;;;;;;;;;;;29.38;22.48;101386.00;5119125;28;1897;-22
2020/12/01 02:02:49;;;;;;;;;;;;;;;29.32;22.93;101392.16;5110236;28;966;-39
2020/12/01 02:05:14;;;;;;;;;;;;;;;29.25;22.61;101400.16;5099306;28;902;-22
2020/12/01 02:07:39;;;;;;;;;;;;;;;28.90;22.92;101403.28;5099259;28;760;-42
2020/12/01 02:10:04;;;;;;;;;;;;;;;28.11;24.39;101405.00;5099033;28;814;-42
2020/12/01 02:12:30;;;;;;;;;;;;;;;28.71;23.58;101394.59;5097095;28;815;-23
2020/12/01 02:15:15;;;;;;;;;;;;;;;28.55;23.82;101392.81;5098881;28;759;-33
2020/12/01 02:17:42;;;;;;;;;;;;;;;28.54;24.10;101412.78;5105005;28;1389;-42
2020/12/01 02:20:09;;;;;;;;;;;;;;;29.01;23.31;101417.47;5117870;28;1973;-22
2020/12/01 02:22:35;;;;;;;;;;;;;;;29.34;22.59;101409.91;5119587;28;783;-26
2020/12/01 02:25:00;;;;;;;;;;;;;;;29.20;21.93;101405.28;5100582;28;744;-23
2020/12/01 02:27:26;;;;;;;;;;;;;;;28.85;22.58;101419.22;5118903;28;874;-22
2020/12/01 02:29:52;;;;;;;;;;;;;;;28.82;22.88;101423.13;5119107;28;739;-22
2020/12/01 02:32:17;;;;;;;;;;;;;;;29.49;21.78;101411.84;5118756;28;992;-43
2020/12/01 02:34:44;;;;;;;;;;;;;;;29.65;21.61;101410.00;5118672;28;1187;-23
2020/12/01 02:37:10;;;;;;;;;;;;;;;29.22;22.27;101419.50;5118915;28;725;-27
2020/12/01 02:39:35;;;;;;;;;;;;;;;29.27;22.20;101392.72;5119121;28;1909;-22
2020/12/01 02:42:01;;;;;;;;;;;;;;;29.32;21.62;101384.88;5118554;28;790;-23
2020/12/01 02:44:27;;;;;;;;;;;;;;;28.96;22.24;101407.16;5119049;28;802;-23
2020/12/01 02:46:52;;;;;;;;;;;;;;;28.90;22.40;101405.13;5118490;28;910;-22
2020/12/01 02:49:17;;;;;;;;;;;;;;;28.82;22.38;101385.22;5118256;28;819;-22
2020/12/01 02:51:43;;;;;;;;;;;;;;;28.99;22.26;101395.97;5118729;27;845;-23
2020/12/01 02:54:08;;;;;;;;;;;;;;;29.10;22.03;101389.28;5117256;28;747;-39
2020/12/01 02:56:33;;;;;;;;;;;;;;;29.14;22.30;101398.75;5118362;28;826;-23
2020/12/01 02:58:58;;;;;;;;;;;;;;;29.20;22.04;101392.59;5118437;28;1909;-43
2020/12/01 03:01:24;;;;;;;;;;;;;;;29.14;21.55;101395.19;5118332;28;819;-29
2020/12/01 03:03:49;;;;;;;;;;;;;;;28.44;22.76;101395.94;5118011;28;953;-30
2020/12/01 03:06:17;;;;;;;;;;;;;;;28.67;22.45;101403.25;5118671;28;841;-22
2020/12/01 03:08:42;;;;;;;;;;;;;;;28.62;22.75;101390.25;5117846;28;830;-22
2020/12/01 03:11:08;;;;;;;;;;;;;;;28.87;22.12;101405.50;5118690;28;771;-25
2020/12/01 03:13:33;;;;;;;;;;;;;;;28.40;23.17;101398.13;5118209;28;724;-23
2020/12/01 03:16:04;;;;;;;;;;;;;;;28.95;22.16;101402.72;5118182;27;831;-44
2020/12/01 03:18:29;;;;;;;;;;;;;;;29.18;21.70;101426.28;5117782;28;1918;-32
2020/12/01 03:20:55;;;;;;;;;;;;;;;28.87;21.51;101421.75;5117792;28;878;-23
2020/12/01 03:23:20;;;;;;;;;;;;;;;28.39;22.64;101422.66;5117162;28;802;-23
2020/12/01 03:25:45;;;;;;;;;;;;;;;28.88;22.16;101410.72;5117683;28;787;-22
2020/12/01 03:28:10;;;;;;;;;;;;;;;28.73;22.52;101445.84;5117962;28;822;-23
2020/12/01 03:30:36;;;;;;;;;;;;;;;28.69;22.70;101442.66;5117992;28;759;-23
2020/12/01 03:33:01;;;;;;;;;;;;;;;29.04;22.07;101446.91;5117588;28;1017;-25
2020/12/01 03:35:27;;;;;;;;;;;;;;;29.43;21.50;101432.38;5117775;28;869;-22
2020/12/01 03:37:53;;;;;;;;;;;;;;;29.20;21.55;101454.06;5117918;28;774;-33
2020/12/01 03:40:18;;;;;;;;;;;;;;;28.71;22.38;101448.72;5117931;28;1964;-43
2020/12/01 03:42:44;;;;;;;;;;;;;;;28.68;22.38;101440.97;5117728;28;821;-22
2020/12/01 03:45:09;;;;;;;;;;;;;;;28.66;22.41;101447.59;5117605;28;755;-40
2020/12/01 03:47:34;;;;;;;;;;;;;;;28.84;22.17;101453.56;5117472;28;914;-22
2020/12/01 03:50:00;;;;;;;;;;;;;;;28.46;22.55;101442.59;5117522;28;750;-43
2020/12/01 03:52:25;;;;;;;;;;;;;;;29.24;21.96;101452.69;5117444;28;770;-40
2020/12/01 03:54:50;;;;;;;;;;;;;;;29.32;21.24;101457.19;5117488;28;826;-21
2020/12/01 03:57:15;;;;;;;;;;;;;;;28.92;21.44;101457.25;5117334;28;886;-21
2020/12/01 03:59:41;;;;;;;;;;;;;;;28.26;23.01;101458.38;5115723;28;1893;-21
2020/12/01 04:02:06;;;;;;;;;;;;;;;28.36;22.95;101440.94;5117434;28;953;-21
2020/12/01 04:04:31;;;;;;;;;;;;;;;28.84;22.03;101434.59;5117433;28;925;-22
2020/12/01 04:06:57;;;;;;;;;;;;;;;28.94;22.04;101442.53;5117249;28;881;-41
2020/12/01 04:09:22;;;;;;;;;;;;;;;28.66;22.74;101451.13;5117319;28;767;-21
2020/12/01 04:11:48;;;;;;;;;;;;;;;27.51;19.53;101460.09;5117172;28;779;-27
2020/12/01 04:14:13;;;;;;;;;;;;;;;24.70;18.96;101430.19;5117053;28;958;-22
2020/12/01 04:16:38;;;;;;;;;;;;;;;23.84;20.45;101416.72;5117065;28;802;-44
2020/12/01 04:19:04;;;;;;;;;;;;;;;25.40;20.54;101413.56;5116851;28;1914;-23
2020/12/01 04:21:29;;;;;;;;;;;;;;;25.16;20.42;101431.19;5117221;28;801;-41
2020/12/01 04:23:54;;;;;;;;;;;;;;;24.79;19.77;101433.78;5116980;28;736;-23
2020/12/01 04:26:20;;;;;;;;;;;;;;;25.40;20.06;101418.97;5116946;28;783;-27
2020/12/01 04:28:45;;;;;;;;;;;;;;;19.23;23.41;101427.78;5117132;28;755;-22
2020/12/01 04:31:11;;;;;;;;;;;;;;;18.47;23.16;101412.69;5117077;28;747;-23
2020/12/01 04:33:36;;;;;;;;;;;;;;;18.56;22.66;101419.19;5116362;28;961;-23
2020/12/01 04:36:01;;;;;;;;;;;;;;;23.60;19.57;101418.06;5119625;28;830;-24
2020/12/01 04:38:26;;;;;;;;;;;;;;;25.53;17.34;101422.09;5121136;28;1969;-29
2020/12/01 04:40:52;;;;;;;;;;;;;;;23.50;19.35;101419.03;5121364;28;771;-22
2020/12/01 04:43:17;;;;;;;;;;;;;;;24.08;20.49;101401.97;5119606;28;1495;-22
2020/12/01 04:45:43;;;;;;;;;;;;;;;24.60;19.55;101407.88;5121050;28;755;-24
2020/12/01 04:48:11;;;;;;;;;;;;;;;24.69;20.57;101392.69;5119583;28;914;-29
2020/12/01 04:50:36;;;;;;;;;;;;;;;24.53;20.36;101398.69;5119864;28;814;-22
2020/12/01 04:53:01;;;;;;;;;;;;;;;24.99;20.07;101409.47;5120896;28;809;-23
2020/12/01 04:55:33;;;;;;;;;;;;;;;24.09;20.18;101416.22;5121053;28;763;-44
2020/12/01 04:58:17;;;;;;;;;;;;;;;24.02;20.01;101412.44;5119749;28;751;-35
2020/12/01 05:00:54;;;;;;;;;;;;;;;24.32;19.95;101435.56;5120494;28;1906;-24
2020/12/01 05:03:21;;;;;;;;;;;;;;;24.72;21.21;101429.19;5120326;28;898;-43
2020/12/01 05:08:35;;;;;;;;;;;;;;;22.49;22.48;101435.88;5120082;28;617;-34
2020/12/01 05:11:27;;;;;;;;;;;;;;;23.69;21.51;101421.69;5119310;28;763;-29
2020/12/01 05:13:55;;;;;;;;;;;;;;;25.43;19.79;101429.41;5096061;28;1158;-25
2020/12/01 05:16:29;;;;;;;;;;;;;;;25.83;17.34;101429.06;5119458;28;823;-27
2020/12/01 05:18:54;;;;;;;;;;;;;;;22.43;18.61;101438.25;5101170;28;1909;-24
2020/12/01 05:21:21;;;;;;;;;;;;;;;20.80;21.71;101436.38;5099948;28;776;-39
2020/12/01 05:23:47;;;;;;;;;;;;;;;20.63;21.39;101427.03;5098745;28;806;-24
2020/12/01 05:26:13;;;;;;;;;;;;;;;19.94;22.68;101413.59;5099974;28;782;-40
2020/12/01 05:28:45;;;;;;;;;;;;;;;24.73;17.73;101420.09;5099605;28;798;-43
2020/12/01 05:31:11;;;;;;;;;;;;;;;22.55;19.11;101412.19;5100151;28;751;-23
2020/12/01 05:33:36;;;;;;;;;;;;;;;21.62;21.28;101430.69;5114109;28;961;-25
2020/12/01 05:36:20;;;;;;;;;;;;;;;21.62;20.05;101445.91;5119877;28;813;-25
2020/12/01 05:39:06;;;;;;;;;;;;;;;22.17;20.69;101439.53;5120310;28;1899;-25
2020/12/01 05:41:32;;;;;;;;;;;;;;;23.07;20.41;101446.13;5112542;28;1169;-25
2020/12/01 05:44:17;;;;;;;;;;;;;;;25.90;18.42;101455.25;5120184;28;729;-26
2020/12/01 05:46:44;;;;;;;;;;;;;;;26.89;18.08;101450.53;5118288;28;1212;-23
2020/12/01 05:49:22;;;;;;;;;;;;;;;26.98;18.54;101448.69;5118309;28;983;-40
2020/12/01 05:51:48;;;;;;;;;;;;;;;27.12;18.74;101452.66;5120034;28;814;-46
2020/12/01 05:54:20;;;;;;;;;;;;;;;27.42;18.67;101468.38;5119633;27;840;-23
2020/12/01 05:56:46;;;;;;;;;;;;;;;27.41;18.71;101464.00;5119611;28;779;-23
2020/12/01 05:59:12;;;;;;;;;;;;;;;27.49;18.77;101453.19;5119352;28;1883;-23
2020/12/01 06:01:44;;;;;;;;;;;;;;;27.65;18.95;101449.63;5117998;28;1284;-24
2020/12/01 06:04:17;;;;;;;;;;;;;;;27.69;19.51;101451.03;5098473;28;1014;-24
2020/12/01 06:06:42;;;;;;;;;;;;;;;27.71;19.81;101465.19;5097587;28;814;-23
2020/12/01 06:09:31;;;;;;;;;;;;;;;28.01;19.48;101466.53;5099311;28;763;-24
2020/12/01 06:11:57;;;;;;;;;;;;;;;28.11;19.47;101473.44;5092849;28;1193;-22
2020/12/01 06:14:43;;;;;;;;;;;;;;;28.29;19.80;101482.38;5097705;28;827;-25
2020/12/01 06:17:13;;;;;;;;;;;;;;;28.56;19.55;101483.81;5100464;28;1057;-42
2020/12/01 06:19:48;;;;;;;;;;;;;;;28.42;20.05;101485.41;5117655;28;1902;-38
2020/12/01 06:22:20;;;;;;;;;;;;;;;28.48;19.87;101500.94;5117679;28;865;-27
2020/12/01 06:25:04;;;;;;;;;;;;;;;27.50;20.30;101496.25;5118030;28;775;-24
2020/12/01 06:27:29;;;;;;;;;;;;;;;26.84;21.52;101496.06;5119269;28;783;-34
2020/12/01 06:29:55;;;;;;;;;;;;;;;27.20;21.54;101505.81;5119105;28;771;-45
2020/12/01 06:32:43;;;;;;;;;;;;;;;27.84;20.90;101509.81;5118503;28;1028;-25
2020/12/01 06:35:27;;;;;;;;;;;;;;;27.00;21.92;101498.84;5089721;27;1196;-24
2020/12/01 06:37:55;;;;;;;;;;;;;;;26.60;22.20;101511.16;5118863;28;775;-25
2020/12/01 06:40:39;;;;;;;;;;;;;;;27.00;22.01;101503.38;5116617;28;1902;-27
2020/12/01 06:43:07;;;;;;;;;;;;;;;27.62;21.50;101496.78;5118505;28;869;-22
2020/12/01 06:45:33;;;;;;;;;;;;;;;27.60;21.58;101506.06;5118417;28;822;-23
2020/12/01 06:48:06;;;;;;;;;;;;;;;28.05;20.76;101500.31;5117630;28;890;-45
2020/12/01 06:50:31;;;;;;;;;;;;;;;27.99;21.18;101501.88;5118629;28;787;-23
2020/12/01 06:52:58;;;;;;;;;;;;;;;27.77;21.50;101506.09;5116875;28;974;-24
2020/12/01 06:55:45;;;;;;;;;;;;;;;28.16;21.08;101508.06;5118155;28;818;-23
2020/12/01 06:58:18;;;;;;;;;;;;;;;28.59;20.71;101509.72;5118302;28;847;-26
2020/12/01 07:00:43;;;;;;;;;;;;;;;28.75;20.76;101513.34;5117837;28;1962;-22
2020/12/01 07:03:09;;;;;;;;;;;;;;;28.90;20.34;101516.16;5117997;28;1005;-46
2020/12/01 07:05:34;;;;;;;;;;;;;;;29.01;19.99;101514.97;5117851;28;832;-22
2020/12/01 07:08:10;;;;;;;;;;;;;;;28.64;19.81;101504.63;5118074;28;885;-32
2020/12/01 07:10:35;;;;;;;;;;;;;;;28.57;20.09;101509.03;5116629;28;1912;-22
2020/12/01 07:13:19;;;;;;;;;;;;;;;28.38;20.55;101504.88;5117980;28;886;-22
2020/12/01 07:15:48;;;;;;;;;;;;;;;28.75;20.16;101499.81;5117962;28;851;-51
2020/12/01 07:18:25;;;;;;;;;;;;;;;28.94;20.03;101494.00;5117766;28;1184;-23
2020/12/01 07:21:05;;;;;;;;;;;;;;;28.77;20.47;101495.06;5116626;28;775;-29
2020/12/01 07:23:38;;;;;;;;;;;;;;;28.68;20.34;101496.97;5117953;28;818;-47
2020/12/01 07:26:19;;;;;;;;;;;;;;;28.32;20.76;101495.53;5116395;28;835;-22
2020/12/01 07:28:55;;;;;;;;;;;;;;;27.92;21.19;101490.88;5117604;28;821;-45
2020/12/01 07:31:22;;;;;;;;;;;;;;;28.46;21.00;101500.25;5116666;28;736;-27
2020/12/01 07:33:48;;;;;;;;;;;;;;;28.72;20.43;101496.47;5117515;28;969;-22
2020/12/01 07:36:20;;;;;;;;;;;;;;;28.65;20.79;101498.16;5117209;28;875;-23
2020/12/01 07:38:46;;;;;;;;;;;;;;;28.71;21.00;101494.75;5116360;28;2006;-22
2020/12/01 07:41:14;;;;;;;;;;;;;;;28.82;20.36;101489.97;5117945;28;813;-24
2020/12/01 07:43:39;;;;;;;;;;;;;;;28.83;20.25;101497.06;5117088;28;526;-27
2020/12/01 07:46:05;;;;;;;;;;;;;;;28.53;20.67;101491.47;5117516;28;810;-22
2020/12/01 07:48:30;;;;;;;;;;;;;;;28.88;20.42;101483.03;5116797;28;981;-30
2020/12/01 07:51:02;;;;;;;;;;;;;;;28.74;20.48;101480.03;5117507;28;802;-36
2020/12/01 07:53:27;;;;;;;;;;;;;;;28.27;20.85;101497.91;5117567;28;771;-25
2020/12/01 07:55:56;;;;;;;;;;;;;;;28.71;20.54;101496.63;5115914;28;823;-23
2020/12/01 07:58:22;;;;;;;;;;;;;;;28.95;20.26;101509.22;5117356;28;767;-23
2020/12/01 08:00:48;;;;;;;;;;;;;;;29.06;20.15;101494.44;5117126;28;1973;-23
2020/12/01 08:03:14;;;;;;;;;;;;;;;29.10;20.07;101497.63;5117398;28;1008;-23
2020/12/01 08:05:39;;;;;;;;;;;;;;;29.03;20.07;101502.91;5116923;28;799;-23
2020/12/01 08:08:05;;;;;;;;;;;;;;;29.20;20.23;101494.69;5117074;28;786;-24
2020/12/01 08:10:30;;;;;;;;;;;;;;;28.73;20.67;101505.41;5116789;28;783;-53
2020/12/01 08:12:59;;;;;;;;;;;;;;;28.92;20.58;101514.13;5116706;28;839;-22
2020/12/01 08:15:24;;;;;;;;;;;;;;;29.27;20.17;101517.34;5116337;28;829;-22
2020/12/01 08:17:49;;;;;;;;;;;;;;;29.42;19.57;101512.00;5116437;28;1084;-46
2020/12/01 08:20:17;;;;;;;;;;;;;;;29.65;19.29;101511.19;5117333;28;1977;-22
2020/12/01 08:22:42;;;;;;;;;;;;;;;29.37;19.67;101522.53;5117467;28;786;-25
2020/12/01 08:25:11;;;;;;;;;;;;;;;29.52;19.63;101506.34;5115768;28;755;-23
2020/12/01 08:28:11;;;;;;;;;;;;;;;29.08;20.15;101507.81;5117259;28;732;-24
2020/12/01 08:30:52;;;;;;;;;;;;;;;28.66;20.85;101502.56;5054243;28;1138;-25
2020/12/01 08:33:37;;;;;;;;;;;;;;;29.40;19.83;101502.34;5109903;28;988;-24
2020/12/01 08:36:26;;;;;;;;;;;;;;;29.76;19.49;101500.94;5095495;28;1224;-24
2020/12/01 08:38:56;;;;;;;;;;;;;;;29.76;19.47;101499.03;5096760;28;1903;-24
2020/12/01 08:41:40;;;;;;;;;;;;;;;29.48;19.79;101504.19;5117053;28;807;-49
2020/12/01 08:44:26;;;;;;;;;;;;;;;29.48;19.59;101498.75;5116987;28;819;-24
2020/12/01 08:46:51;;;;;;;;;;;;;;;28.84;20.29;101488.75;5085057;28;1055;-50
2020/12/01 08:49:41;;;;;;;;;;;;;;;28.81;20.53;101494.53;5116947;28;882;-24
2020/12/01 08:52:06;;;;;;;;;;;;;;;29.67;19.60;101497.44;5116637;28;847;-24
2020/12/01 08:54:34;;;;;;;;;;;;;;;29.71;19.27;101496.06;5115222;28;1321;-24
2020/12/01 08:57:09;;;;;;;;;;;;;;;29.70;19.26;101492.50;5116847;28;823;-46
2020/12/01 08:59:35;;;;;;;;;;;;;;;29.76;19.52;101490.09;5115327;28;1907;-24
2020/12/01 09:02:01;;;;;;;;;;;;;;;29.68;19.50;101470.13;5116646;28;1004;-28
2020/12/01 09:04:28;;;;;;;;;;;;;;;29.09;19.79;101480.53;5116719;28;724;-43
2020/12/01 09:06:56;;;;;;;;;;;;;;;28.90;20.28;101472.84;5116570;28;783;-24
2020/12/01 09:09:25;;;;;;;;;;;;;;;29.15;19.91;101473.56;5116900;28;790;-23
2020/12/01 09:12:14;;;;;;;;;;;;;;;29.46;19.96;101475.38;5116628;28;810;-24
2020/12/01 09:17:25;;;;;;;;;;;;;;;28.28;21.25;101462.56;5116787;28;1000;-24
2020/12/01 09:20:01;;;;;;;;;;;;;;;28.80;20.59;101473.91;5115231;28;1902;-24
2020/12/01 09:22:26;;;;;;;;;;;;;;;28.71;20.57;101464.97;5118134;28;860;-49
2020/12/01 09:25:03;;;;;;;;;;;;;;;28.71;20.91;101466.84;5120330;28;759;-24
2020/12/01 09:27:31;;;;;;;;;;;;;;;29.37;20.07;101473.75;5120826;28;807;-23
2020/12/01 09:29:56;;;;;;;;;;;;;;;29.60;19.83;101462.06;5120435;27;890;-23
2020/12/01 09:32:22;;;;;;;;;;;;;;;29.25;19.82;101467.06;5119976;28;1031;-25
2020/12/01 09:34:47;;;;;;;;;;;;;;;28.54;21.07;101466.06;5119757;28;1181;-24
2020/12/01 09:37:12;;;;;;;;;;;;;;;28.87;20.43;101462.34;5120334;28;814;-24
2020/12/01 09:39:38;;;;;;;;;;;;;;;28.83;20.58;101456.44;5119921;28;1967;-22
2020/12/01 09:42:09;;;;;;;;;;;;;;;28.56;20.75;101454.03;5120195;27;766;-23
2020/12/01 09:47:24;;;;;;;;;;;;;;;29.92;19.37;101441.09;5119220;28;961;-22
2020/12/01 09:49:49;;;;;;;;;;;;;;;30.00;19.16;101439.31;5120119;28;798;-23
2020/12/01 09:52:20;;;;;;;;;;;;;;;29.97;19.40;101423.41;5120219;28;783;-22
2020/12/01 09:58:14;;;;;;;;;;;;;;;29.07;20.13;101420.28;5109283;28;1392;-24
2020/12/01 10:08:48;;;;;;;;;;;;;;;29.88;19.33;101393.69;5056572;28;1174;-22
2020/12/01 10:13:57;;;;;;;;;;;;;;;28.78;20.88;101383.88;5093841;28;928;-22
2020/12/01 10:33:53;;;;;;;;;;;;;;;29.11;20.34;101355.78;5118610;28;1024;-23
2020/12/01 10:35:12;;;;;;;;;;;;;;;30.00;19.66;101328.94;5118614;28;1645;-52
2020/12/01 10:37:37;;;;;;;;;;;;;;;30.18;19.18;101347.53;5118873;28;787;-24
2020/12/01 10:40:03;;;;;;;;;;;;;;;29.84;19.77;101331.88;5119014;28;1950;-24
2020/12/01 10:42:28;;;;;;;;;;;;;;;29.54;19.86;101343.50;5118959;28;743;-27
2020/12/01 10:44:53;;;;;;;;;;;;;;;29.28;20.36;101337.47;5118693;28;807;-24
2020/12/01 10:47:19;;;;;;;;;;;;;;;29.72;19.96;101348.59;5118402;28;846;-45
2020/12/01 10:49:44;;;;;;;;;;;;;;;30.06;19.40;101347.19;5118850;28;794;-24
2020/12/01 10:52:09;;;;;;;;;;;;;;;30.12;19.57;101366.44;5118606;28;779;-48
2020/12/01 10:54:34;;;;;;;;;;;;;;;30.01;19.72;101362.34;5118687;28;806;-22
2020/12/01 10:57:00;;;;;;;;;;;;;;;30.06;19.64;101359.91;5118821;28;715;-41
2020/12/01 10:59:25;;;;;;;;;;;;;;;29.96;19.45;101364.78;5118772;28;1895;-23
2020/12/01 11:01:51;;;;;;;;;;;;;;;27.25;17.50;101355.78;5118317;28;1434;-23
2020/12/01 11:04:16;;;;;;;;;;;;;;;21.33;21.00;101345.66;5118017;28;914;-39
2020/12/01 11:06:42;;;;;;;;;;;;;;;19.84;21.72;101356.53;5118477;28;759;-22
2020/12/01 11:09:07;;;;;;;;;;;;;;;20.46;21.11;101358.91;5118301;28;827;-21
2020/12/01 11:11:32;;;;;;;;;;;;;;;24.34;17.75;101361.00;5118409;28;775;-22
2020/12/01 11:13:58;;;;;;;;;;;;;;;24.78;17.68;101362.16;5118183;28;898;-26
2020/12/01 11:16:23;;;;;;;;;;;;;;;27.26;17.00;101370.94;5118110;28;812;-47
2020/12/01 11:18:48;;;;;;;;;;;;;;;28.10;16.93;101373.53;5117408;28;1910;-55
2020/12/01 11:21:14;;;;;;;;;;;;;;;28.05;17.08;101368.66;5118219;28;838;-62
2020/12/01 11:23:39;;;;;;;;;;;;;;;28.15;17.35;101373.00;5117973;28;843;-52
2020/12/01 11:26:04;;;;;;;;;;;;;;;28.29;17.76;101380.41;5118043;28;846;-25
2020/12/01 11:28:30;;;;;;;;;;;;;;;28.47;17.71;101377.47;5118163;28;743;-59
2020/12/01 11:30:55;;;;;;;;;;;;;;;28.64;17.74;101384.66;5117573;28;866;-25
2020/12/01 11:33:20;;;;;;;;;;;;;;;28.72;17.73;101373.78;5117477;28;968;-32
2020/12/01 11:35:45;;;;;;;;;;;;;;;27.51;19.53;101368.22;5117815;28;847;-22
2020/12/01 11:38:11;;;;;;;;;;;;;;;27.46;20.03;101369.78;5118204;28;747;-25
2020/12/01 11:40:36;;;;;;;;;;;;;;;27.46;19.97;101373.31;5117403;28;1901;-22
2020/12/01 11:43:01;;;;;;;;;;;;;;;27.84;19.87;101353.84;5117834;28;805;-23
2020/12/01 11:45:26;;;;;;;;;;;;;;;27.53;20.19;101365.34;5117102;28;846;-23
2020/12/01 11:47:52;;;;;;;;;;;;;;;27.22;20.54;101363.34;5117393;28;972;-23
2020/12/01 11:50:17;;;;;;;;;;;;;;;27.58;20.07;101375.66;5117875;28;814;-22
2020/12/01 11:52:42;;;;;;;;;;;;;;;27.86;19.86;101378.84;5117460;28;830;-22
2020/12/01 11:55:08;;;;;;;;;;;;;;;28.66;19.12;101361.78;5117334;28;775;-47
2020/12/01 11:57:33;;;;;;;;;;;;;;;29.08;18.75;101356.97;5117182;28;549;-54
2020/12/01 11:59:58;;;;;;;;;;;;;;;29.34;18.52;101350.28;5117296;28;1903;-39
2020/12/01 12:02:24;;;;;;;;;;;;;;;29.47;18.88;101356.97;5117128;28;968;-25
2020/12/01 12:04:49;;;;;;;;;;;;;;;28.68;19.64;101361.59;5117399;28;719;-43
2020/12/01 12:07:14;;;;;;;;;;;;;;;28.56;19.62;101359.31;5117286;28;747;-22
2020/12/01 12:09:40;;;;;;;;;;;;;;;29.06;19.49;101352.75;5117873;28;799;-25
2020/12/01 12:12:05;;;;;;;;;;;;;;;28.78;19.87;101345.16;5117412;28;811;-22
2020/12/01 12:14:30;;;;;;;;;;;;;;;28.65;20.07;101351.13;5117152;28;818;-24
2020/12/01 12:16:55;;;;;;;;;;;;;;;28.57;20.63;101344.78;5116634;28;1024;-22
2020/12/01 12:19:21;;;;;;;;;;;;;;;29.16;19.81;101342.50;5117455;28;1983;-24
2020/12/01 12:21:46;;;;;;;;;;;;;;;29.40;19.48;101345.16;5116855;28;1040;-22
2020/12/01 12:24:11;;;;;;;;;;;;;;;29.43;19.53;101356.47;5117247;28;803;-23
2020/12/01 12:26:37;;;;;;;;;;;;;;;29.63;19.47;101353.25;5117194;28;751;-22
2020/12/01 12:29:02;;;;;;;;;;;;;;;29.41;19.85;101355.00;5117131;28;854;-21
2020/12/01 12:31:27;;;;;;;;;;;;;;;29.30;20.07;101359.81;5117253;28;775;-46
2020/12/01 12:33:53;;;;;;;;;;;;;;;28.81;20.10;101363.75;5116958;28;969;-22
2020/12/01 12:36:18;;;;;;;;;;;;;;;28.79;20.84;101369.34;5117033;28;830;-22
2020/12/01 12:38:43;;;;;;;;;;;;;;;29.36;20.11;101363.69;5117130;28;1906;-23
2020/12/01 12:41:08;;;;;;;;;;;;;;;29.42;19.77;101381.91;5117369;28;775;-34
2020/12/01 12:43:34;;;;;;;;;;;;;;;29.62;19.73;101377.84;5116931;28;850;-22
2020/12/01 12:45:59;;;;;;;;;;;;;;;29.63;19.94;101372.25;5117112;28;798;-22
2020/12/01 12:48:25;;;;;;;;;;;;;;;29.17;20.34;101375.84;5116906;28;921;-22
2020/12/01 12:50:50;;;;;;;;;;;;;;;28.77;21.16;101375.94;5116922;28;743;-22
2020/12/01 12:53:16;;;;;;;;;;;;;;;29.37;20.46;101384.31;5117106;28;734;-34
2020/12/01 12:55:41;;;;;;;;;;;;;;;29.28;20.26;101385.44;5117261;28;763;-24
2020/12/01 12:58:06;;;;;;;;;;;;;;;29.49;20.13;101379.31;5120937;28;832;-22
2020/12/01 13:00:32;;;;;;;;;;;;;;;29.48;19.71;101380.31;5120948;28;1968;-52
2020/12/01 13:02:57;;;;;;;;;;;;;;;29.76;19.79;101381.63;5120335;28;965;-22
2020/12/01 13:05:22;;;;;;;;;;;;;;;29.58;19.40;101372.78;5121224;28;838;-44
2020/12/01 13:07:48;;;;;;;;;;;;;;;28.89;20.40;101379.09;5120658;28;822;-25
2020/12/01 13:10:16;;;;;;;;;;;;;;;29.05;20.72;101370.03;5120832;28;806;-23
2020/12/01 13:12:45;;;;;;;;;;;;;;;29.39;20.41;101370.59;5119513;28;921;-21
2020/12/01 13:15:11;;;;;;;;;;;;;;;29.23;20.20;101356.16;5120669;28;794;-55
2020/12/01 13:17:36;;;;;;;;;;;;;;;28.93;19.94;101366.84;5120157;28;961;-24
2020/12/01 13:20:03;;;;;;;;;;;;;;;28.93;20.44;101364.16;5119999;28;1981;-22
2020/12/01 13:22:28;;;;;;;;;;;;;;;26.22;17.27;101357.69;5120588;28;810;-43
2020/12/01 13:24:53;;;;;;;;;;;;;;;24.09;18.06;101357.09;5120395;28;842;-22
2020/12/01 13:27:21;;;;;;;;;;;;;;;23.34;20.72;101355.97;5120473;28;833;-24
2020/12/01 13:29:47;;;;;;;;;;;;;;;25.75;21.10;101341.78;5120461;28;795;-27
2020/12/01 13:32:12;;;;;;;;;;;;;;;26.11;21.44;101350.75;5120116;28;981;-26
2020/12/01 13:34:37;;;;;;;;;;;;;;;27.57;20.39;101357.75;5120375;27;1169;-37
2020/12/01 13:37:03;;;;;;;;;;;;;;;28.03;19.82;101359.03;5120272;28;775;-25